sensor_id;sensor_type;location;lat;lon;timestamp;temperature;humidity
851;DHT22;412;51.400;7.480;2022-10-16T00:01:24;16.50;99.90
851;DHT22;412;51.400;7.480;2022-10-16T00:03:51;16.50;99.90
851;DHT22;412;51.400;7.480;2022-10-16T00:06:19;16.50;99.90
851;DHT22;412;51.400;7.480;2022-10-16T00:08:46;16.50;99.90
851;DHT22;412;51.400;7.480;2022-10-16T00:11:15;16.40;99.90
851;DHT22;412;51.400;7.480;2022-10-16T00:13:42;16.50;99.90
851;DHT22;412;51.400;7.480;2022-10-16T00:16:09;16.40;99.90
851;DHT22;412;51.400;7.480;2022-10-16T00:18:36;16.40;99.90
851;DHT22;412;51.400;7.480;2022-10-16T00:21:08;16.40;99.90
851;DHT22;412;51.400;7.480;2022-10-16T00:23:34;16.40;99.90
851;DHT22;412;51.400;7.480;2022-10-16T00:26:02;16.40;99.90
851;DHT22;412;51.400;7.480;2022-10-16T00:28:29;16.30;99.90
851;DHT22;412;51.400;7.480;2022-10-16T00:30:55;16.30;99.90
851;DHT22;412;51.400;7.480;2022-10-16T00:33:21;16.40;99.90
851;DHT22;412;51.400;7.480;2022-10-16T00:35:47;16.30;99.90
851;DHT22;412;51.400;7.480;2022-10-16T00:38:13;16.30;99.90
851;DHT22;412;51.400;7.480;2022-10-16T00:40:39;16.30;99.90
851;DHT22;412;51.400;7.480;2022-10-16T00:43:34;16.30;99.90
851;DHT22;412;51.400;7.480;2022-10-16T00:45:58;16.30;99.90
851;DHT22;412;51.400;7.480;2022-10-16T00:48:24;16.30;99.90
851;DHT22;412;51.400;7.480;2022-10-16T00:50:50;16.30;99.90
851;DHT22;412;51.400;7.480;2022-10-16T00:53:17;16.30;99.90
851;DHT22;412;51.400;7.480;2022-10-16T00:55:42;16.30;99.90
851;DHT22;412;51.400;7.480;2022-10-16T00:58:09;16.30;99.90
851;DHT22;412;51.400;7.480;2022-10-16T01:00:35;16.40;99.90
851;DHT22;412;51.400;7.480;2022-10-16T01:03:02;16.30;99.90
851;DHT22;412;51.400;7.480;2022-10-16T01:05:39;16.30;99.90
851;DHT22;412;51.400;7.480;2022-10-16T01:08:18;16.30;99.90
851;DHT22;412;51.400;7.480;2022-10-16T01:11:08;16.30;99.90
851;DHT22;412;51.400;7.480;2022-10-16T01:13:42;16.30;99.90
851;DHT22;412;51.400;7.480;2022-10-16T01:16:19;16.20;99.90
851;DHT22;412;51.400;7.480;2022-10-16T01:18:58;16.30;99.90
851;DHT22;412;51.400;7.480;2022-10-16T01:21:29;16.20;99.90
851;DHT22;412;51.400;7.480;2022-10-16T01:27:08;16.20;99.90
851;DHT22;412;51.400;7.480;2022-10-16T01:30:07;16.30;99.90
851;DHT22;412;51.400;7.480;2022-10-16T01:32:52;16.30;99.90
851;DHT22;412;51.400;7.480;2022-10-16T01:35:34;16.30;99.90
851;DHT22;412;51.400;7.480;2022-10-16T01:40:46;16.40;99.90
851;DHT22;412;51.400;7.480;2022-10-16T01:43:16;16.40;99.90
851;DHT22;412;51.400;7.480;2022-10-16T01:45:44;16.40;99.90
851;DHT22;412;51.400;7.480;2022-10-16T01:48:14;16.40;99.90
851;DHT22;412;51.400;7.480;2022-10-16T01:50:43;16.40;99.90
851;DHT22;412;51.400;7.480;2022-10-16T01:53:12;16.30;99.90
851;DHT22;412;51.400;7.480;2022-10-16T01:55:42;16.40;99.90
851;DHT22;412;51.400;7.480;2022-10-16T01:58:12;16.40;99.90
851;DHT22;412;51.400;7.480;2022-10-16T02:00:42;16.40;99.90
851;DHT22;412;51.400;7.480;2022-10-16T02:03:11;16.40;99.90
851;DHT22;412;51.400;7.480;2022-10-16T02:05:41;16.30;99.90
851;DHT22;412;51.400;7.480;2022-10-16T02:08:10;16.30;99.90
851;DHT22;412;51.400;7.480;2022-10-16T02:10:36;16.30;99.90
851;DHT22;412;51.400;7.480;2022-10-16T02:13:10;16.30;99.90
851;DHT22;412;51.400;7.480;2022-10-16T02:15:38;16.30;99.90
851;DHT22;412;51.400;7.480;2022-10-16T02:18:05;16.30;99.90
851;DHT22;412;51.400;7.480;2022-10-16T02:20:53;16.30;99.90
851;DHT22;412;51.400;7.480;2022-10-16T02:23:30;16.30;99.90
851;DHT22;412;51.400;7.480;2022-10-16T02:26:03;16.30;99.90
851;DHT22;412;51.400;7.480;2022-10-16T02:28:44;16.30;99.90
851;DHT22;412;51.400;7.480;2022-10-16T02:31:13;16.40;99.90
851;DHT22;412;51.400;7.480;2022-10-16T02:33:42;16.40;99.90
851;DHT22;412;51.400;7.480;2022-10-16T02:36:09;16.20;99.90
851;DHT22;412;51.400;7.480;2022-10-16T02:38:36;16.30;99.90
851;DHT22;412;51.400;7.480;2022-10-16T02:41:02;16.30;99.90
851;DHT22;412;51.400;7.480;2022-10-16T02:43:28;16.30;99.90
851;DHT22;412;51.400;7.480;2022-10-16T02:45:55;16.40;99.90
851;DHT22;412;51.400;7.480;2022-10-16T02:48:21;16.30;99.90
851;DHT22;412;51.400;7.480;2022-10-16T02:50:46;16.40;99.90
851;DHT22;412;51.400;7.480;2022-10-16T02:53:12;16.30;99.90
851;DHT22;412;51.400;7.480;2022-10-16T02:55:38;16.30;99.90
851;DHT22;412;51.400;7.480;2022-10-16T02:58:03;16.30;99.90
851;DHT22;412;51.400;7.480;2022-10-16T03:00:29;16.30;99.90
851;DHT22;412;51.400;7.480;2022-10-16T03:02:55;16.30;99.90
851;DHT22;412;51.400;7.480;2022-10-16T03:05:20;16.30;99.90
851;DHT22;412;51.400;7.480;2022-10-16T03:07:46;16.30;99.90
851;DHT22;412;51.400;7.480;2022-10-16T03:10:12;16.30;99.90
851;DHT22;412;51.400;7.480;2022-10-16T03:12:37;16.20;99.90
851;DHT22;412;51.400;7.480;2022-10-16T03:15:03;16.20;99.90
851;DHT22;412;51.400;7.480;2022-10-16T03:17:29;16.10;99.90
851;DHT22;412;51.400;7.480;2022-10-16T03:19:55;16.10;99.90
851;DHT22;412;51.400;7.480;2022-10-16T03:22:20;16.10;99.90
851;DHT22;412;51.400;7.480;2022-10-16T03:24:46;16.20;99.90
851;DHT22;412;51.400;7.480;2022-10-16T03:27:11;16.20;99.90
851;DHT22;412;51.400;7.480;2022-10-16T03:29:37;16.20;99.90
851;DHT22;412;51.400;7.480;2022-10-16T03:32:03;16.30;99.90
851;DHT22;412;51.400;7.480;2022-10-16T03:34:28;16.30;99.90
851;DHT22;412;51.400;7.480;2022-10-16T03:36:55;16.40;99.90
851;DHT22;412;51.400;7.480;2022-10-16T03:39:20;16.40;99.90
851;DHT22;412;51.400;7.480;2022-10-16T03:41:46;16.40;99.90
851;DHT22;412;51.400;7.480;2022-10-16T03:44:12;16.40;99.90
851;DHT22;412;51.400;7.480;2022-10-16T03:46:38;16.40;99.90
851;DHT22;412;51.400;7.480;2022-10-16T03:49:04;16.40;99.90
851;DHT22;412;51.400;7.480;2022-10-16T03:51:30;16.50;99.90
851;DHT22;412;51.400;7.480;2022-10-16T03:53:56;16.50;99.90
851;DHT22;412;51.400;7.480;2022-10-16T03:56:21;16.50;99.90
851;DHT22;412;51.400;7.480;2022-10-16T03:58:47;16.50;99.90
851;DHT22;412;51.400;7.480;2022-10-16T04:01:13;16.40;99.90
851;DHT22;412;51.400;7.480;2022-10-16T04:03:38;16.40;99.90
851;DHT22;412;51.400;7.480;2022-10-16T04:06:04;16.30;99.90
851;DHT22;412;51.400;7.480;2022-10-16T04:08:30;16.40;99.90
851;DHT22;412;51.400;7.480;2022-10-16T04:10:56;16.40;99.90
851;DHT22;412;51.400;7.480;2022-10-16T04:13:21;16.40;99.90
851;DHT22;412;51.400;7.480;2022-10-16T04:15:47;16.30;99.90
851;DHT22;412;51.400;7.480;2022-10-16T04:18:13;16.40;99.90
851;DHT22;412;51.400;7.480;2022-10-16T04:20:38;16.40;99.90
851;DHT22;412;51.400;7.480;2022-10-16T04:23:04;16.30;99.90
851;DHT22;412;51.400;7.480;2022-10-16T04:25:30;16.40;99.90
851;DHT22;412;51.400;7.480;2022-10-16T04:27:56;16.40;99.90
851;DHT22;412;51.400;7.480;2022-10-16T04:30:22;16.30;99.90
851;DHT22;412;51.400;7.480;2022-10-16T04:32:49;16.30;99.90
851;DHT22;412;51.400;7.480;2022-10-16T04:35:16;16.30;99.90
851;DHT22;412;51.400;7.480;2022-10-16T04:37:42;16.30;99.90
851;DHT22;412;51.400;7.480;2022-10-16T04:40:07;16.30;99.90
851;DHT22;412;51.400;7.480;2022-10-16T04:42:33;16.30;99.90
851;DHT22;412;51.400;7.480;2022-10-16T04:44:59;16.30;99.90
851;DHT22;412;51.400;7.480;2022-10-16T04:47:24;16.20;99.90
851;DHT22;412;51.400;7.480;2022-10-16T04:49:50;16.30;99.90
851;DHT22;412;51.400;7.480;2022-10-16T04:52:16;16.20;99.90
851;DHT22;412;51.400;7.480;2022-10-16T04:54:42;16.30;99.90
851;DHT22;412;51.400;7.480;2022-10-16T04:57:10;16.30;99.90
851;DHT22;412;51.400;7.480;2022-10-16T04:59:36;16.20;99.90
851;DHT22;412;51.400;7.480;2022-10-16T05:02:02;16.20;99.90
851;DHT22;412;51.400;7.480;2022-10-16T05:04:30;16.30;99.90
851;DHT22;412;51.400;7.480;2022-10-16T05:06:56;16.20;99.90
851;DHT22;412;51.400;7.480;2022-10-16T05:09:21;16.10;99.90
851;DHT22;412;51.400;7.480;2022-10-16T05:11:47;16.20;99.90
851;DHT22;412;51.400;7.480;2022-10-16T05:14:13;16.10;99.90
851;DHT22;412;51.400;7.480;2022-10-16T05:16:38;16.10;99.90
851;DHT22;412;51.400;7.480;2022-10-16T05:19:04;16.20;99.90
851;DHT22;412;51.400;7.480;2022-10-16T05:21:30;16.20;99.90
851;DHT22;412;51.400;7.480;2022-10-16T05:23:55;16.20;99.90
851;DHT22;412;51.400;7.480;2022-10-16T05:26:21;16.20;99.90
851;DHT22;412;51.400;7.480;2022-10-16T05:28:47;16.20;99.90
851;DHT22;412;51.400;7.480;2022-10-16T05:31:12;16.20;99.90
851;DHT22;412;51.400;7.480;2022-10-16T05:33:38;16.20;99.90
851;DHT22;412;51.400;7.480;2022-10-16T05:36:05;16.20;99.90
851;DHT22;412;51.400;7.480;2022-10-16T05:38:33;16.20;99.90
851;DHT22;412;51.400;7.480;2022-10-16T05:40:59;16.30;99.90
851;DHT22;412;51.400;7.480;2022-10-16T05:43:24;16.20;99.90
851;DHT22;412;51.400;7.480;2022-10-16T05:46:08;16.30;99.90
851;DHT22;412;51.400;7.480;2022-10-16T05:48:34;16.30;99.90
851;DHT22;412;51.400;7.480;2022-10-16T05:51:05;16.30;99.90
851;DHT22;412;51.400;7.480;2022-10-16T05:53:34;16.30;99.90
851;DHT22;412;51.400;7.480;2022-10-16T05:56:00;16.30;99.90
851;DHT22;412;51.400;7.480;2022-10-16T05:58:31;16.20;99.90
851;DHT22;412;51.400;7.480;2022-10-16T06:00:59;16.10;99.90
851;DHT22;412;51.400;7.480;2022-10-16T06:03:25;16.20;99.90
851;DHT22;412;51.400;7.480;2022-10-16T06:05:51;16.20;99.90
851;DHT22;412;51.400;7.480;2022-10-16T06:08:18;16.20;99.90
851;DHT22;412;51.400;7.480;2022-10-16T06:10:44;16.20;99.90
851;DHT22;412;51.400;7.480;2022-10-16T06:13:11;16.20;99.90
851;DHT22;412;51.400;7.480;2022-10-16T06:15:38;16.30;99.90
851;DHT22;412;51.400;7.480;2022-10-16T06:18:05;16.30;99.90
851;DHT22;412;51.400;7.480;2022-10-16T06:20:31;16.30;99.90
851;DHT22;412;51.400;7.480;2022-10-16T06:22:57;16.20;99.90
851;DHT22;412;51.400;7.480;2022-10-16T06:25:22;16.20;99.90
851;DHT22;412;51.400;7.480;2022-10-16T06:27:48;16.30;99.90
851;DHT22;412;51.400;7.480;2022-10-16T06:30:14;16.20;99.90
851;DHT22;412;51.400;7.480;2022-10-16T06:32:39;16.20;99.90
851;DHT22;412;51.400;7.480;2022-10-16T06:35:05;16.20;99.90
851;DHT22;412;51.400;7.480;2022-10-16T06:37:31;16.30;99.90
851;DHT22;412;51.400;7.480;2022-10-16T06:39:56;16.30;99.90
851;DHT22;412;51.400;7.480;2022-10-16T06:42:22;16.30;99.90
851;DHT22;412;51.400;7.480;2022-10-16T06:44:48;16.30;99.90
851;DHT22;412;51.400;7.480;2022-10-16T06:47:13;16.40;99.90
851;DHT22;412;51.400;7.480;2022-10-16T06:49:39;16.40;99.90
851;DHT22;412;51.400;7.480;2022-10-16T06:52:05;16.40;99.90
851;DHT22;412;51.400;7.480;2022-10-16T06:54:30;16.40;99.90
851;DHT22;412;51.400;7.480;2022-10-16T06:56:56;16.40;99.90
851;DHT22;412;51.400;7.480;2022-10-16T06:59:22;16.50;99.90
851;DHT22;412;51.400;7.480;2022-10-16T07:01:48;16.50;99.90
851;DHT22;412;51.400;7.480;2022-10-16T07:04:14;16.60;99.90
851;DHT22;412;51.400;7.480;2022-10-16T07:06:40;16.60;99.90
851;DHT22;412;51.400;7.480;2022-10-16T07:09:11;16.70;99.90
851;DHT22;412;51.400;7.480;2022-10-16T07:11:39;16.70;99.90
851;DHT22;412;51.400;7.480;2022-10-16T07:14:04;16.80;99.90
851;DHT22;412;51.400;7.480;2022-10-16T07:16:32;16.90;99.90
851;DHT22;412;51.400;7.480;2022-10-16T07:18:59;16.90;99.90
851;DHT22;412;51.400;7.480;2022-10-16T07:21:29;16.90;99.90
851;DHT22;412;51.400;7.480;2022-10-16T07:23:59;17.10;99.90
851;DHT22;412;51.400;7.480;2022-10-16T07:26:28;17.10;99.90
851;DHT22;412;51.400;7.480;2022-10-16T07:28:53;17.10;99.90
851;DHT22;412;51.400;7.480;2022-10-16T07:31:20;17.20;99.90
851;DHT22;412;51.400;7.480;2022-10-16T07:33:46;17.20;99.90
851;DHT22;412;51.400;7.480;2022-10-16T07:36:14;17.20;99.90
851;DHT22;412;51.400;7.480;2022-10-16T07:38:41;17.20;99.90
851;DHT22;412;51.400;7.480;2022-10-16T07:41:10;17.20;99.90
851;DHT22;412;51.400;7.480;2022-10-16T07:43:37;17.20;99.90
851;DHT22;412;51.400;7.480;2022-10-16T07:46:03;17.20;99.90
851;DHT22;412;51.400;7.480;2022-10-16T07:48:31;17.20;99.90
851;DHT22;412;51.400;7.480;2022-10-16T07:51:04;17.30;99.90
851;DHT22;412;51.400;7.480;2022-10-16T07:53:30;17.30;99.90
851;DHT22;412;51.400;7.480;2022-10-16T07:56:04;17.30;99.90
851;DHT22;412;51.400;7.480;2022-10-16T07:58:33;17.30;99.90
851;DHT22;412;51.400;7.480;2022-10-16T08:01:03;17.30;99.90
851;DHT22;412;51.400;7.480;2022-10-16T08:03:30;17.40;99.90
851;DHT22;412;51.400;7.480;2022-10-16T08:05:57;17.40;99.90
851;DHT22;412;51.400;7.480;2022-10-16T08:08:24;17.40;99.90
851;DHT22;412;51.400;7.480;2022-10-16T08:10:50;17.40;99.90
851;DHT22;412;51.400;7.480;2022-10-16T08:13:15;17.40;99.90
851;DHT22;412;51.400;7.480;2022-10-16T08:15:42;17.40;99.90
851;DHT22;412;51.400;7.480;2022-10-16T08:18:10;17.30;99.90
851;DHT22;412;51.400;7.480;2022-10-16T08:20:35;17.30;99.90
851;DHT22;412;51.400;7.480;2022-10-16T08:23:02;17.30;99.90
851;DHT22;412;51.400;7.480;2022-10-16T08:25:28;17.40;99.90
851;DHT22;412;51.400;7.480;2022-10-16T08:27:53;17.50;99.90
851;DHT22;412;51.400;7.480;2022-10-16T08:30:21;17.60;99.90
851;DHT22;412;51.400;7.480;2022-10-16T08:32:47;17.50;99.90
851;DHT22;412;51.400;7.480;2022-10-16T08:35:13;17.60;99.90
851;DHT22;412;51.400;7.480;2022-10-16T08:37:39;17.70;99.90
851;DHT22;412;51.400;7.480;2022-10-16T08:40:07;17.80;99.90
851;DHT22;412;51.400;7.480;2022-10-16T08:45:40;18.00;99.90
851;DHT22;412;51.400;7.480;2022-10-16T08:48:57;18.20;99.90
851;DHT22;412;51.400;7.480;2022-10-16T08:51:04;18.20;99.90
851;DHT22;412;51.400;7.480;2022-10-16T08:53:48;18.30;99.90
851;DHT22;412;51.400;7.480;2022-10-16T08:56:14;18.40;99.90
851;DHT22;412;51.400;7.480;2022-10-16T08:58:40;18.40;99.90
851;DHT22;412;51.400;7.480;2022-10-16T09:01:13;18.60;99.90
851;DHT22;412;51.400;7.480;2022-10-16T09:06:35;18.70;99.90
851;DHT22;412;51.400;7.480;2022-10-16T09:09:39;18.80;99.90
851;DHT22;412;51.400;7.480;2022-10-16T09:18:04;19.60;99.90
851;DHT22;412;51.400;7.480;2022-10-16T09:23:35;20.20;99.90
851;DHT22;412;51.400;7.480;2022-10-16T09:26:03;20.50;99.90
851;DHT22;412;51.400;7.480;2022-10-16T09:28:29;20.70;99.90
851;DHT22;412;51.400;7.480;2022-10-16T09:30:55;21.00;99.70
851;DHT22;412;51.400;7.480;2022-10-16T09:33:25;21.20;99.00
851;DHT22;412;51.400;7.480;2022-10-16T09:35:55;21.50;99.30
851;DHT22;412;51.400;7.480;2022-10-16T09:38:32;21.70;96.80
851;DHT22;412;51.400;7.480;2022-10-16T09:41:00;21.90;95.30
851;DHT22;412;51.400;7.480;2022-10-16T09:44:15;22.10;94.60
851;DHT22;412;51.400;7.480;2022-10-16T09:46:33;22.30;94.20
851;DHT22;412;51.400;7.480;2022-10-16T09:49:20;22.50;94.00
851;DHT22;412;51.400;7.480;2022-10-16T09:51:46;22.60;93.40
851;DHT22;412;51.400;7.480;2022-10-16T09:54:15;22.80;91.90
851;DHT22;412;51.400;7.480;2022-10-16T09:56:41;22.90;92.70
851;DHT22;412;51.400;7.480;2022-10-16T09:59:16;23.10;92.30
851;DHT22;412;51.400;7.480;2022-10-16T10:01:53;23.30;92.60
851;DHT22;412;51.400;7.480;2022-10-16T10:04:22;23.50;90.80
851;DHT22;412;51.400;7.480;2022-10-16T10:06:50;23.50;91.00
851;DHT22;412;51.400;7.480;2022-10-16T10:09:26;23.30;91.10
851;DHT22;412;51.400;7.480;2022-10-16T10:12:00;23.10;90.90
851;DHT22;412;51.400;7.480;2022-10-16T10:22:27;22.80;91.00
851;DHT22;412;51.400;7.480;2022-10-16T10:27:48;22.60;90.50
851;DHT22;412;51.400;7.480;2022-10-16T10:35:45;22.20;92.00
851;DHT22;412;51.400;7.480;2022-10-16T10:41:26;21.80;91.70
851;DHT22;412;51.400;7.480;2022-10-16T10:46:42;21.50;93.20
851;DHT22;412;51.400;7.480;2022-10-16T10:52:29;21.70;93.70
851;DHT22;412;51.400;7.480;2022-10-16T11:01:12;21.40;92.60
851;DHT22;412;51.400;7.480;2022-10-16T11:06:41;21.40;93.70
851;DHT22;412;51.400;7.480;2022-10-16T11:09:14;21.40;93.20
851;DHT22;412;51.400;7.480;2022-10-16T11:11:45;21.50;93.30
851;DHT22;412;51.400;7.480;2022-10-16T11:14:23;21.80;93.80
851;DHT22;412;51.400;7.480;2022-10-16T11:17:08;22.20;93.30
851;DHT22;412;51.400;7.480;2022-10-16T11:20:05;22.50;92.00
851;DHT22;412;51.400;7.480;2022-10-16T11:22:41;22.50;92.00
851;DHT22;412;51.400;7.480;2022-10-16T11:25:30;22.50;91.80
851;DHT22;412;51.400;7.480;2022-10-16T11:33:57;22.70;91.10
851;DHT22;412;51.400;7.480;2022-10-16T11:45:08;22.50;92.30
851;DHT22;412;51.400;7.480;2022-10-16T11:47:54;22.60;90.90
851;DHT22;412;51.400;7.480;2022-10-16T11:50:45;22.80;91.00
851;DHT22;412;51.400;7.480;2022-10-16T11:53:45;22.80;91.10
851;DHT22;412;51.400;7.480;2022-10-16T11:56:13;22.90;91.00
851;DHT22;412;51.400;7.480;2022-10-16T11:59:07;22.90;90.20
851;DHT22;412;51.400;7.480;2022-10-16T12:01:47;23.00;90.80
851;DHT22;412;51.400;7.480;2022-10-16T12:04:25;23.00;89.00
851;DHT22;412;51.400;7.480;2022-10-16T12:08:04;22.90;89.10
851;DHT22;412;51.400;7.480;2022-10-16T12:09:56;22.90;88.50
851;DHT22;412;51.400;7.480;2022-10-16T12:12:37;22.90;88.30
851;DHT22;412;51.400;7.480;2022-10-16T12:15:22;22.80;89.60
851;DHT22;412;51.400;7.480;2022-10-16T12:17:49;22.80;87.80
851;DHT22;412;51.400;7.480;2022-10-16T12:20:28;22.70;87.90
851;DHT22;412;51.400;7.480;2022-10-16T12:23:01;22.50;86.40
851;DHT22;412;51.400;7.480;2022-10-16T12:25:36;22.40;87.90
851;DHT22;412;51.400;7.480;2022-10-16T12:28:22;22.30;86.90
851;DHT22;412;51.400;7.480;2022-10-16T12:31:02;22.10;87.90
851;DHT22;412;51.400;7.480;2022-10-16T12:33:40;22.00;87.90
851;DHT22;412;51.400;7.480;2022-10-16T12:36:13;21.90;89.90
851;DHT22;412;51.400;7.480;2022-10-16T12:38:52;21.90;90.20
851;DHT22;412;51.400;7.480;2022-10-16T12:41:26;21.80;89.80
851;DHT22;412;51.400;7.480;2022-10-16T12:43:53;21.70;90.10
851;DHT22;412;51.400;7.480;2022-10-16T12:48:44;21.70;91.60
851;DHT22;412;51.400;7.480;2022-10-16T12:51:11;21.60;90.10
851;DHT22;412;51.400;7.480;2022-10-16T12:53:38;21.50;89.00
851;DHT22;412;51.400;7.480;2022-10-16T12:56:15;21.50;89.80
851;DHT22;412;51.400;7.480;2022-10-16T12:59:05;21.40;89.60
851;DHT22;412;51.400;7.480;2022-10-16T13:01:41;21.50;90.10
851;DHT22;412;51.400;7.480;2022-10-16T13:04:40;21.40;90.50
851;DHT22;412;51.400;7.480;2022-10-16T13:15:45;21.30;90.40
851;DHT22;412;51.400;7.480;2022-10-16T13:18:21;21.30;91.00
851;DHT22;412;51.400;7.480;2022-10-16T13:28:39;21.30;90.90
851;DHT22;412;51.400;7.480;2022-10-16T13:31:05;21.30;91.60
851;DHT22;412;51.400;7.480;2022-10-16T13:33:41;21.30;91.70
851;DHT22;412;51.400;7.480;2022-10-16T13:36:22;21.30;91.50
851;DHT22;412;51.400;7.480;2022-10-16T13:38:48;21.30;92.00
851;DHT22;412;51.400;7.480;2022-10-16T13:41:18;21.30;92.50
851;DHT22;412;51.400;7.480;2022-10-16T13:43:51;21.30;93.70
851;DHT22;412;51.400;7.480;2022-10-16T13:46:20;21.30;92.70
851;DHT22;412;51.400;7.480;2022-10-16T13:48:59;21.30;92.30
851;DHT22;412;51.400;7.480;2022-10-16T13:51:25;21.40;93.60
851;DHT22;412;51.400;7.480;2022-10-16T13:53:51;21.40;93.40
851;DHT22;412;51.400;7.480;2022-10-16T13:56:19;21.40;92.30
851;DHT22;412;51.400;7.480;2022-10-16T13:58:45;21.50;93.40
851;DHT22;412;51.400;7.480;2022-10-16T14:01:24;21.60;92.40
851;DHT22;412;51.400;7.480;2022-10-16T14:03:51;21.70;92.90
851;DHT22;412;51.400;7.480;2022-10-16T14:06:20;21.80;93.30
851;DHT22;412;51.400;7.480;2022-10-16T14:09:06;21.80;93.30
851;DHT22;412;51.400;7.480;2022-10-16T14:11:33;21.80;92.80
851;DHT22;412;51.400;7.480;2022-10-16T14:14:02;21.90;92.30
851;DHT22;412;51.400;7.480;2022-10-16T14:16:30;21.90;92.40
851;DHT22;412;51.400;7.480;2022-10-16T14:19:02;22.00;92.00
851;DHT22;412;51.400;7.480;2022-10-16T14:21:29;22.00;91.50
851;DHT22;412;51.400;7.480;2022-10-16T14:23:56;21.90;91.50
851;DHT22;412;51.400;7.480;2022-10-16T14:26:27;21.90;92.00
851;DHT22;412;51.400;7.480;2022-10-16T14:29:14;21.90;91.50
851;DHT22;412;51.400;7.480;2022-10-16T14:31:41;21.70;90.70
851;DHT22;412;51.400;7.480;2022-10-16T14:34:33;21.70;91.80
851;DHT22;412;51.400;7.480;2022-10-16T14:37:01;21.80;91.80
851;DHT22;412;51.400;7.480;2022-10-16T14:39:32;21.80;92.30
851;DHT22;412;51.400;7.480;2022-10-16T14:41:59;21.70;92.30
851;DHT22;412;51.400;7.480;2022-10-16T14:44:33;21.70;92.70
851;DHT22;412;51.400;7.480;2022-10-16T14:47:09;21.60;91.90
851;DHT22;412;51.400;7.480;2022-10-16T14:49:37;21.40;91.70
851;DHT22;412;51.400;7.480;2022-10-16T14:52:08;21.30;92.20
851;DHT22;412;51.400;7.480;2022-10-16T14:54:34;21.30;92.60
851;DHT22;412;51.400;7.480;2022-10-16T14:56:59;21.30;92.80
851;DHT22;412;51.400;7.480;2022-10-16T14:59:35;21.10;92.70
851;DHT22;412;51.400;7.480;2022-10-16T15:02:20;21.10;93.30
851;DHT22;412;51.400;7.480;2022-10-16T15:04:48;20.90;92.90
851;DHT22;412;51.400;7.480;2022-10-16T15:07:14;20.80;93.20
851;DHT22;412;51.400;7.480;2022-10-16T15:09:40;20.80;93.60
851;DHT22;412;51.400;7.480;2022-10-16T15:12:06;20.80;93.80
851;DHT22;412;51.400;7.480;2022-10-16T15:14:31;20.70;93.50
851;DHT22;412;51.400;7.480;2022-10-16T15:16:57;20.60;93.80
851;DHT22;412;51.400;7.480;2022-10-16T15:19:23;20.50;94.30
851;DHT22;412;51.400;7.480;2022-10-16T15:21:49;20.50;94.20
851;DHT22;412;51.400;7.480;2022-10-16T15:24:15;20.50;94.50
851;DHT22;412;51.400;7.480;2022-10-16T15:26:41;20.50;94.50
851;DHT22;412;51.400;7.480;2022-10-16T15:29:07;20.50;94.70
851;DHT22;412;51.400;7.480;2022-10-16T15:31:33;20.30;94.40
851;DHT22;412;51.400;7.480;2022-10-16T15:33:59;20.30;95.20
851;DHT22;412;51.400;7.480;2022-10-16T15:36:33;20.20;95.40
851;DHT22;412;51.400;7.480;2022-10-16T15:39:12;20.20;95.70
851;DHT22;412;51.400;7.480;2022-10-16T15:41:38;20.10;95.90
851;DHT22;412;51.400;7.480;2022-10-16T15:44:03;20.00;96.40
851;DHT22;412;51.400;7.480;2022-10-16T15:46:29;19.90;96.60
851;DHT22;412;51.400;7.480;2022-10-16T15:48:57;19.70;97.00
851;DHT22;412;51.400;7.480;2022-10-16T15:51:24;19.80;97.70
851;DHT22;412;51.400;7.480;2022-10-16T15:53:50;19.90;98.20
851;DHT22;412;51.400;7.480;2022-10-16T15:56:16;19.90;98.00
851;DHT22;412;51.400;7.480;2022-10-16T15:58:43;19.90;98.00
851;DHT22;412;51.400;7.480;2022-10-16T16:01:09;19.90;98.60
851;DHT22;412;51.400;7.480;2022-10-16T16:03:37;20.00;99.90
851;DHT22;412;51.400;7.480;2022-10-16T16:06:10;20.00;99.90
851;DHT22;412;51.400;7.480;2022-10-16T16:08:36;20.00;99.60
851;DHT22;412;51.400;7.480;2022-10-16T16:11:05;20.00;99.90
851;DHT22;412;51.400;7.480;2022-10-16T16:13:31;20.00;99.90
851;DHT22;412;51.400;7.480;2022-10-16T16:15:56;20.10;99.90
851;DHT22;412;51.400;7.480;2022-10-16T16:18:22;20.00;99.90
851;DHT22;412;51.400;7.480;2022-10-16T16:20:50;20.00;99.90
851;DHT22;412;51.400;7.480;2022-10-16T16:23:16;20.00;99.90
851;DHT22;412;51.400;7.480;2022-10-16T16:25:42;20.00;99.90
851;DHT22;412;51.400;7.480;2022-10-16T16:28:08;19.90;99.90
851;DHT22;412;51.400;7.480;2022-10-16T16:30:36;19.90;99.90
851;DHT22;412;51.400;7.480;2022-10-16T16:33:02;19.90;99.90
851;DHT22;412;51.400;7.480;2022-10-16T16:35:28;19.90;99.90
851;DHT22;412;51.400;7.480;2022-10-16T16:37:54;19.90;99.90
851;DHT22;412;51.400;7.480;2022-10-16T16:40:20;19.90;99.90
851;DHT22;412;51.400;7.480;2022-10-16T16:42:48;19.90;99.90
851;DHT22;412;51.400;7.480;2022-10-16T16:45:14;19.90;99.90
851;DHT22;412;51.400;7.480;2022-10-16T16:47:39;19.80;99.90
851;DHT22;412;51.400;7.480;2022-10-16T16:50:06;19.80;99.90
851;DHT22;412;51.400;7.480;2022-10-16T16:52:34;19.80;99.90
851;DHT22;412;51.400;7.480;2022-10-16T16:55:00;19.80;99.90
851;DHT22;412;51.400;7.480;2022-10-16T16:57:26;19.70;99.90
851;DHT22;412;51.400;7.480;2022-10-16T16:59:52;19.70;99.90
851;DHT22;412;51.400;7.480;2022-10-16T17:02:18;19.60;99.90
851;DHT22;412;51.400;7.480;2022-10-16T17:04:43;19.50;99.90
851;DHT22;412;51.400;7.480;2022-10-16T17:07:09;19.50;99.90
851;DHT22;412;51.400;7.480;2022-10-16T17:09:35;19.50;99.90
851;DHT22;412;51.400;7.480;2022-10-16T17:12:01;19.50;99.90
851;DHT22;412;51.400;7.480;2022-10-16T17:14:26;19.40;99.90
851;DHT22;412;51.400;7.480;2022-10-16T17:16:52;19.40;99.90
851;DHT22;412;51.400;7.480;2022-10-16T17:19:19;19.40;99.90
851;DHT22;412;51.400;7.480;2022-10-16T17:21:47;19.30;99.90
851;DHT22;412;51.400;7.480;2022-10-16T17:24:13;19.30;99.90
851;DHT22;412;51.400;7.480;2022-10-16T17:26:39;19.40;99.90
851;DHT22;412;51.400;7.480;2022-10-16T17:29:11;19.30;99.90
851;DHT22;412;51.400;7.480;2022-10-16T17:31:37;19.30;99.90
851;DHT22;412;51.400;7.480;2022-10-16T17:34:07;19.30;99.90
851;DHT22;412;51.400;7.480;2022-10-16T17:36:36;19.30;99.90
851;DHT22;412;51.400;7.480;2022-10-16T17:39:11;19.20;99.90
851;DHT22;412;51.400;7.480;2022-10-16T17:41:38;19.20;99.90
851;DHT22;412;51.400;7.480;2022-10-16T17:44:04;19.10;99.90
851;DHT22;412;51.400;7.480;2022-10-16T17:46:30;19.10;99.90
851;DHT22;412;51.400;7.480;2022-10-16T17:48:57;19.10;99.90
851;DHT22;412;51.400;7.480;2022-10-16T17:51:26;19.10;99.90
851;DHT22;412;51.400;7.480;2022-10-16T17:53:55;19.00;99.90
851;DHT22;412;51.400;7.480;2022-10-16T17:56:21;19.00;99.90
851;DHT22;412;51.400;7.480;2022-10-16T17:58:49;19.00;99.90
851;DHT22;412;51.400;7.480;2022-10-16T18:03:42;18.90;99.90
851;DHT22;412;51.400;7.480;2022-10-16T18:06:07;18.90;99.90
851;DHT22;412;51.400;7.480;2022-10-16T18:08:33;18.90;99.90
851;DHT22;412;51.400;7.480;2022-10-16T18:11:02;18.80;99.90
851;DHT22;412;51.400;7.480;2022-10-16T18:13:28;18.80;99.90
851;DHT22;412;51.400;7.480;2022-10-16T18:16:09;18.80;99.90
851;DHT22;412;51.400;7.480;2022-10-16T18:18:39;18.80;99.90
851;DHT22;412;51.400;7.480;2022-10-16T18:21:07;18.80;99.90